createdAt,value
2022-11-14T00:01:28.214Z,86.83
2022-11-14T00:03:57.684Z,86.95
2022-11-14T00:06:25.772Z,87.07
2022-11-14T00:08:53.888Z,87.30
2022-11-14T00:11:22.031Z,87.62
2022-11-14T00:13:50.138Z,86.51
2022-11-14T00:16:18.295Z,85.77
2022-11-14T00:18:46.395Z,84.94
2022-11-14T00:21:15.863Z,84.58
2022-11-14T00:23:44.002Z,84.08
2022-11-14T00:26:12.105Z,83.84
2022-11-14T00:28:40.208Z,83.29
2022-11-14T00:31:08.351Z,83.75
2022-11-14T00:33:36.475Z,84.41
2022-11-14T00:36:05.341Z,84.99
2022-11-14T00:38:34.842Z,84.97
2022-11-14T00:41:03.029Z,85.52
2022-11-14T00:43:31.239Z,85.70
2022-11-14T00:45:59.399Z,86.31
2022-11-14T00:48:27.814Z,87.80
2022-11-14T00:50:56.184Z,88.72
2022-11-14T00:53:24.276Z,89.48
2022-11-14T00:55:53.761Z,90.08
2022-11-14T00:58:21.857Z,90.65
2022-11-14T01:00:50.106Z,91.02
2022-11-14T01:03:18.673Z,91.19
2022-11-14T01:05:50.390Z,91.76
2022-11-14T01:08:20.953Z,92.07
2022-11-14T01:10:51.836Z,92.39
2022-11-14T01:13:21.407Z,92.44
2022-11-14T01:15:52.095Z,92.78
2022-11-14T01:18:23.001Z,93.10
2022-11-14T01:20:51.525Z,93.17
2022-11-14T01:23:19.730Z,93.35
2022-11-14T01:25:48.026Z,93.30
2022-11-14T01:28:21.005Z,93.38
2022-11-14T01:30:49.220Z,93.30
2022-11-14T01:33:17.311Z,93.40
2022-11-14T01:35:45.383Z,93.13
2022-11-14T01:38:16.042Z,93.15
2022-11-14T01:40:46.474Z,92.78
2022-11-14T01:43:32.642Z,92.82
2022-11-14T01:46:05.147Z,92.93
2022-11-14T01:48:42.518Z,92.52
2022-11-14T01:51:24.546Z,92.77
2022-11-14T01:53:56.512Z,92.64
2022-11-14T01:56:32.472Z,92.70
2022-11-14T01:59:08.465Z,92.96
2022-11-14T02:01:42.552Z,92.69
2022-11-14T02:04:15.083Z,92.65
2022-11-14T02:06:43.863Z,92.40
2022-11-14T02:09:12.007Z,92.08
2022-11-14T02:11:45.751Z,92.40
2022-11-14T02:14:15.303Z,92.23
2022-11-14T02:17:00.781Z,92.12
2022-11-14T02:19:44.671Z,92.02
2022-11-14T02:22:14.258Z,92.13
2022-11-14T02:24:42.720Z,92.25
2022-11-14T02:27:13.760Z,92.16
2022-11-14T02:29:42.381Z,91.92
2022-11-14T02:32:11.131Z,91.55
2022-11-14T02:34:39.787Z,91.37
2022-11-14T02:37:08.815Z,91.30
2022-11-14T02:39:38.989Z,91.19
2022-11-14T02:42:07.461Z,91.12
2022-11-14T02:44:35.651Z,90.75
2022-11-14T02:47:03.829Z,90.64
2022-11-14T02:49:32.038Z,90.79
2022-11-14T02:52:00.170Z,90.87
2022-11-14T02:54:28.296Z,90.87
2022-11-14T02:56:57.782Z,90.92
2022-11-14T02:59:25.917Z,90.82
2022-11-14T03:01:54.118Z,90.98
2022-11-14T03:04:22.324Z,91.30
2022-11-14T03:06:50.486Z,91.35
2022-11-14T03:09:18.820Z,91.45
2022-11-14T03:11:46.977Z,91.33
2022-11-14T03:14:16.445Z,91.26
2022-11-14T03:16:44.531Z,91.04
2022-11-14T03:19:12.603Z,91.41
2022-11-14T03:21:40.691Z,91.33
2022-11-14T03:24:09.368Z,91.56
2022-11-14T03:26:37.458Z,91.21
2022-11-14T03:29:06.099Z,90.59
2022-11-14T03:31:35.560Z,90.24
2022-11-14T03:34:03.742Z,90.42
2022-11-14T03:36:31.839Z,90.63
2022-11-14T03:38:59.947Z,90.87
2022-11-14T03:41:28.042Z,91.14
2022-11-14T03:43:56.181Z,91.16
2022-11-14T03:46:24.589Z,91.23
2022-11-14T03:48:54.087Z,91.28
2022-11-14T03:51:22.386Z,90.99
2022-11-14T03:53:50.505Z,91.30
2022-11-14T03:56:18.604Z,91.23
2022-11-14T03:58:46.744Z,91.09
2022-11-14T04:01:14.886Z,90.73
2022-11-14T04:03:43.084Z,90.44
2022-11-14T04:06:12.584Z,90.07
2022-11-14T04:08:42.054Z,90.05
2022-11-14T04:11:10.299Z,89.69
2022-11-14T04:13:38.445Z,89.80
2022-11-14T04:16:08.403Z,89.59
2022-11-14T04:18:36.514Z,89.95
2022-11-14T04:21:05.125Z,90.11
2022-11-14T04:23:34.752Z,89.96
2022-11-14T04:26:03.047Z,90.07
2022-11-14T04:28:31.564Z,90.25
2022-11-14T04:31:00.341Z,90.51
2022-11-14T04:33:28.907Z,90.51
2022-11-14T04:35:57.024Z,90.74
2022-11-14T04:38:25.165Z,90.80
2022-11-14T04:40:55.408Z,90.86
2022-11-14T04:43:23.542Z,91.05
2022-11-14T04:45:51.651Z,91.20
2022-11-14T04:48:19.774Z,91.50
2022-11-14T04:50:47.873Z,91.22
2022-11-14T04:53:15.957Z,91.12
2022-11-14T04:55:46.239Z,91.04
2022-11-14T04:58:15.693Z,90.95
2022-11-14T05:00:43.799Z,91.14
2022-11-14T05:03:11.913Z,90.66
2022-11-14T05:05:42.256Z,90.64
2022-11-14T05:08:10.712Z,90.80
2022-11-14T05:10:38.831Z,90.67
2022-11-14T05:13:06.905Z,90.46
2022-11-14T05:15:37.115Z,89.94
2022-11-14T05:18:05.811Z,90.17
2022-11-14T05:20:33.943Z,90.59
2022-11-14T05:23:02.060Z,90.98
2022-11-14T05:25:30.224Z,91.03
2022-11-14T05:27:58.339Z,91.28
2022-11-14T05:30:26.435Z,91.50
2022-11-14T05:32:55.897Z,91.63
2022-11-14T05:35:23.999Z,91.87
2022-11-14T05:37:54.932Z,91.87
2022-11-14T05:40:27.039Z,92.02
2022-11-14T05:42:56.627Z,92.21
2022-11-14T05:45:24.745Z,92.20
2022-11-14T05:47:54.989Z,92.21
2022-11-14T05:50:23.137Z,92.25
2022-11-14T05:52:51.236Z,92.40
2022-11-14T05:55:24.406Z,92.34
2022-11-14T05:57:53.015Z,92.62
2022-11-14T06:00:21.373Z,92.63
2022-11-14T06:02:54.884Z,92.58
2022-11-14T06:05:23.864Z,92.64
2022-11-14T06:07:57.191Z,92.57
2022-11-14T06:10:26.463Z,92.55
2022-11-14T06:12:54.631Z,92.26
2022-11-14T06:15:22.799Z,91.70
2022-11-14T06:17:54.990Z,91.61
2022-11-14T06:20:23.201Z,91.30
2022-11-14T06:22:54.769Z,90.70
2022-11-14T06:25:22.966Z,90.14
2022-11-14T06:27:51.035Z,88.95
2022-11-14T06:30:19.344Z,87.77
2022-11-14T06:32:47.444Z,87.60
2022-11-14T06:35:17.275Z,87.38
2022-11-14T06:37:45.366Z,87.21
2022-11-14T06:40:13.924Z,87.19
2022-11-14T06:42:42.025Z,87.28
2022-11-14T06:45:11.397Z,86.96
2022-11-14T06:47:39.485Z,86.23
2022-11-14T06:50:09.488Z,86.74
2022-11-14T06:52:38.931Z,87.03
2022-11-14T06:55:08.091Z,87.56
2022-11-14T06:57:36.190Z,87.83
2022-11-14T07:00:05.735Z,87.72
2022-11-14T07:02:33.933Z,87.75
2022-11-14T07:05:02.074Z,87.91
2022-11-14T07:07:30.250Z,87.75
2022-11-14T07:09:59.749Z,86.28
2022-11-14T07:12:29.482Z,85.45
2022-11-14T07:14:57.541Z,84.76
2022-11-14T07:17:30.784Z,83.95
2022-11-14T07:19:59.419Z,83.79
2022-11-14T07:22:27.554Z,83.81
2022-11-14T07:24:55.669Z,84.48
2022-11-14T07:27:25.191Z,84.78
2022-11-14T07:29:53.301Z,84.83
2022-11-14T07:32:21.388Z,84.92
2022-11-14T07:34:49.487Z,85.31
2022-11-14T07:37:17.680Z,85.93
2022-11-14T07:39:46.419Z,86.25
2022-11-14T07:42:14.523Z,86.85
2022-11-14T07:44:43.969Z,87.53
2022-11-14T07:47:12.119Z,87.60
2022-11-14T07:49:40.197Z,88.20
2022-11-14T07:52:08.272Z,88.31
2022-11-14T07:54:36.366Z,88.24
2022-11-14T07:57:04.634Z,87.53
2022-11-14T07:59:32.774Z,87.46
2022-11-14T08:02:02.282Z,87.72
2022-11-14T08:04:30.381Z,87.04
2022-11-14T08:06:58.587Z,87.18
2022-11-14T08:09:26.819Z,86.24
2022-11-14T08:11:54.976Z,85.48
2022-11-14T08:14:23.145Z,84.25
2022-11-14T08:16:52.086Z,83.77
2022-11-14T08:19:21.584Z,82.27
2022-11-14T08:21:49.691Z,83.77
2022-11-14T08:24:17.808Z,84.19
2022-11-14T08:26:45.889Z,83.50
2022-11-14T08:29:14.054Z,82.29
2022-11-14T08:31:42.175Z,82.04
2022-11-14T08:34:10.802Z,81.41
2022-11-14T08:36:40.254Z,80.89
2022-11-14T08:39:08.372Z,80.21
2022-11-14T08:41:36.523Z,76.78
2022-11-14T08:44:04.781Z,76.88
2022-11-14T08:46:32.910Z,75.58
2022-11-14T08:49:00.988Z,75.29
2022-11-14T08:51:31.563Z,74.99
2022-11-14T08:54:00.994Z,75.49
2022-11-14T08:56:29.170Z,75.79
2022-11-14T08:58:57.350Z,75.33
2022-11-14T09:01:25.451Z,73.92
2022-11-14T09:03:59.426Z,73.74
2022-11-14T09:06:28.243Z,72.78
2022-11-14T09:08:56.528Z,72.19
2022-11-14T09:11:26.060Z,71.01
2022-11-14T09:13:54.197Z,70.43
2022-11-14T09:16:22.318Z,69.93
2022-11-14T09:18:50.431Z,67.73
2022-11-14T09:21:18.545Z,67.84
2022-11-14T09:23:48.319Z,68.08
2022-11-14T09:26:18.347Z,67.88
2022-11-14T09:28:47.794Z,68.12
2022-11-14T09:31:15.950Z,68.20
2022-11-14T09:33:44.076Z,68.52
2022-11-14T09:36:15.769Z,67.61
2022-11-14T09:38:44.477Z,68.06
2022-11-14T09:41:26.306Z,68.09
2022-11-14T09:44:45.779Z,67.93
2022-11-14T09:47:21.311Z,67.43
2022-11-14T09:49:54.799Z,67.69
2022-11-14T09:52:36.125Z,67.80
2022-11-14T09:55:13.441Z,67.51
2022-11-14T09:57:44.692Z,66.91
2022-11-14T10:00:21.284Z,66.54
2022-11-14T10:03:16.163Z,66.91
2022-11-14T10:06:05.414Z,66.88
2022-11-14T10:09:00.006Z,66.24
2022-11-14T10:11:39.505Z,66.20
2022-11-14T10:14:54.436Z,66.11
2022-11-14T10:17:51.991Z,64.98
2022-11-14T10:20:30.564Z,63.49
2022-11-14T10:23:15.578Z,63.88
2022-11-14T10:26:01.670Z,63.87
2022-11-14T10:28:59.825Z,64.53
2022-11-14T10:31:45.154Z,64.64
2022-11-14T10:34:26.447Z,63.94
2022-11-14T10:37:06.452Z,63.08
2022-11-14T10:39:43.108Z,62.03
2022-11-14T10:42:18.604Z,61.64
2022-11-14T10:44:58.256Z,61.97
2022-11-14T10:47:30.738Z,63.01
2022-11-14T10:50:15.429Z,63.87
2022-11-14T10:52:46.537Z,64.51
2022-11-14T10:55:18.074Z,64.57
2022-11-14T10:57:47.665Z,65.10
2022-11-14T11:00:19.613Z,65.13
2022-11-14T11:02:57.297Z,64.89
2022-11-14T11:05:31.770Z,65.10
2022-11-14T11:11:31.045Z,64.78
2022-11-14T11:14:02.171Z,64.05
2022-11-14T11:16:31.677Z,61.99
2022-11-14T11:19:23.393Z,59.43
2022-11-14T11:21:54.464Z,57.23
2022-11-14T11:24:34.462Z,55.86
2022-11-14T11:27:23.508Z,54.27
2022-11-14T11:30:09.103Z,54.55
2022-11-14T11:32:37.252Z,55.92
2022-11-14T11:35:13.057Z,56.94
2022-11-14T11:37:54.581Z,58.56
2022-11-14T11:40:26.609Z,59.41
2022-11-14T11:43:37.405Z,59.71
2022-11-14T11:45:56.556Z,59.78
2022-11-14T11:48:38.214Z,59.25
2022-11-14T11:51:14.701Z,59.37
2022-11-14T11:53:51.877Z,58.91
2022-11-14T11:56:27.263Z,58.25
2022-11-14T11:59:03.768Z,57.95
2022-11-14T12:01:31.997Z,57.63
2022-11-14T12:04:04.037Z,56.96
2022-11-14T12:06:43.672Z,57.72
2022-11-14T12:09:32.872Z,58.84
2022-11-14T12:12:26.431Z,59.32
2022-11-14T12:15:17.174Z,59.70
2022-11-14T12:18:43.626Z,59.71
2022-11-14T12:21:37.950Z,59.13
2022-11-14T12:24:52.007Z,59.03
2022-11-14T12:27:58.711Z,59.32
2022-11-14T12:30:29.144Z,59.35
2022-11-14T12:33:02.946Z,58.42
2022-11-14T12:35:34.545Z,58.74
2022-11-14T12:38:06.834Z,58.68
2022-11-14T12:40:40.288Z,58.60
2022-11-14T12:43:36.328Z,58.82
2022-11-14T12:46:09.677Z,59.17
2022-11-14T12:48:40.545Z,58.98
2022-11-14T12:51:52.360Z,58.57
2022-11-14T12:54:47.212Z,58.70
2022-11-14T12:57:48.995Z,58.64
2022-11-14T13:00:19.444Z,59.08
2022-11-14T13:03:13.768Z,59.50
2022-11-14T13:05:58.229Z,59.04
2022-11-14T13:09:10.491Z,59.20
2022-11-14T13:12:00.771Z,58.99
2022-11-14T13:14:49.210Z,59.15
2022-11-14T13:17:46.137Z,59.50
2022-11-14T13:20:54.318Z,60.08
2022-11-14T13:23:57.775Z,60.24
2022-11-14T13:26:48.886Z,60.92
2022-11-14T13:29:58.712Z,60.86
2022-11-14T13:32:56.458Z,61.62
2022-11-14T13:35:43.238Z,61.30
2022-11-14T13:39:01.129Z,62.00
2022-11-14T13:42:08.986Z,62.16
2022-11-14T13:45:25.970Z,62.46
2022-11-14T13:48:37.095Z,62.23
2022-11-14T13:51:41.163Z,62.40
2022-11-14T13:54:00.750Z,63.13
2022-11-14T13:56:41.245Z,63.85
2022-11-14T13:59:43.966Z,64.58
2022-11-14T14:03:02.806Z,65.11
2022-11-14T14:05:48.599Z,65.44
2022-11-14T14:08:39.150Z,65.44
2022-11-14T14:11:46.002Z,65.70
2022-11-14T14:14:38.410Z,65.55
2022-11-14T14:17:16.254Z,65.58
2022-11-14T14:20:02.590Z,65.88
2022-11-14T14:22:46.922Z,66.14
2022-11-14T14:25:25.608Z,66.66
2022-11-14T14:28:11.152Z,66.58
2022-11-14T14:30:39.283Z,66.40
2022-11-14T14:33:17.718Z,66.48
2022-11-14T14:35:54.644Z,66.54
2022-11-14T14:38:29.252Z,66.72
2022-11-14T14:40:58.117Z,66.98
2022-11-14T14:43:34.514Z,66.91
2022-11-14T14:46:03.467Z,67.00
2022-11-14T14:48:36.617Z,67.03
2022-11-14T14:51:07.422Z,67.38
2022-11-14T14:53:37.267Z,67.57
2022-11-14T14:56:18.217Z,67.71
2022-11-14T14:58:46.348Z,68.03
2022-11-14T15:01:17.682Z,67.94
2022-11-14T15:03:51.047Z,68.41
2022-11-14T15:06:32.961Z,68.25
2022-11-14T15:09:09.597Z,68.41
2022-11-14T15:11:42.406Z,69.05
2022-11-14T15:14:15.051Z,69.31
2022-11-14T15:16:44.875Z,69.69
2022-11-14T15:19:17.803Z,70.20
2022-11-14T15:22:02.452Z,70.52
2022-11-14T15:24:30.990Z,70.87
2022-11-14T15:26:59.464Z,71.08
2022-11-14T15:29:31.547Z,71.58
2022-11-14T15:32:02.761Z,71.94
2022-11-14T15:34:33.240Z,72.11
2022-11-14T15:37:24.579Z,72.34
2022-11-14T15:39:52.818Z,72.22
2022-11-14T15:42:29.257Z,72.47
2022-11-14T15:44:58.022Z,72.67
2022-11-14T15:47:28.905Z,73.06
2022-11-14T15:50:02.445Z,73.17
2022-11-14T15:52:37.280Z,73.53
2022-11-14T15:55:14.625Z,73.85
2022-11-14T15:57:45.415Z,73.61
2022-11-14T16:00:19.339Z,73.08
2022-11-14T16:02:52.671Z,73.31
2022-11-14T16:05:27.994Z,73.77
2022-11-14T16:07:57.641Z,74.00
2022-11-14T16:10:28.097Z,74.54
2022-11-14T16:12:56.178Z,74.68
2022-11-14T16:15:24.263Z,74.84
2022-11-14T16:17:52.424Z,74.87
2022-11-14T16:20:23.798Z,75.32
2022-11-14T16:22:53.816Z,75.42
2022-11-14T16:25:26.094Z,75.63
2022-11-14T16:27:54.732Z,75.93
2022-11-14T16:30:25.584Z,76.09
2022-11-14T16:32:53.977Z,76.12
2022-11-14T16:35:24.775Z,75.70
2022-11-14T16:37:55.219Z,75.67
2022-11-14T16:40:27.984Z,75.93
2022-11-14T16:42:59.405Z,75.79
2022-11-14T16:45:28.215Z,76.16
2022-11-14T16:47:56.362Z,76.20
2022-11-14T16:50:24.432Z,76.47
2022-11-14T16:52:53.563Z,76.82
2022-11-14T16:55:21.634Z,76.76
2022-11-14T16:57:51.031Z,76.72
2022-11-14T17:00:19.147Z,76.69
2022-11-14T17:02:47.738Z,76.66
2022-11-14T17:05:16.388Z,76.77
2022-11-14T17:07:44.471Z,76.70
2022-11-14T17:10:12.523Z,77.01
2022-11-14T17:12:40.556Z,76.89
2022-11-14T17:15:10.867Z,76.97
2022-11-14T17:17:38.896Z,77.07
2022-11-14T17:20:08.524Z,77.14
2022-11-14T17:22:36.584Z,77.01
2022-11-14T17:25:05.332Z,77.09
2022-11-14T17:27:33.368Z,77.43
2022-11-14T17:30:01.435Z,77.67
2022-11-14T17:32:32.288Z,77.42
2022-11-14T17:35:00.325Z,77.54
2022-11-14T17:37:28.401Z,77.47
2022-11-14T17:39:56.456Z,77.76
2022-11-14T17:42:24.547Z,77.80
2022-11-14T17:44:52.981Z,77.92
2022-11-14T17:47:21.144Z,77.89
2022-11-14T17:49:50.575Z,77.85
2022-11-14T17:52:18.627Z,77.92
2022-11-14T17:54:46.675Z,78.05
2022-11-14T17:57:14.763Z,77.66
2022-11-14T17:59:42.769Z,77.83
2022-11-14T18:02:15.435Z,77.62
2022-11-14T18:04:43.524Z,77.68
2022-11-14T18:07:13.128Z,77.91
2022-11-14T18:09:41.370Z,77.78
2022-11-14T18:12:09.511Z,77.66
2022-11-14T18:14:37.523Z,77.67
2022-11-14T18:17:12.819Z,77.23
2022-11-14T18:19:41.563Z,76.74
2022-11-14T18:22:09.992Z,76.51
2022-11-14T18:24:43.199Z,76.60
2022-11-14T18:27:11.237Z,76.71
2022-11-14T18:29:39.296Z,76.72
2022-11-14T18:32:07.428Z,75.98
2022-11-14T18:34:36.791Z,74.96
2022-11-14T18:37:05.441Z,74.82
2022-11-14T18:39:33.633Z,74.45
2022-11-14T18:42:03.064Z,73.33
2022-11-14T18:44:31.348Z,72.79
2022-11-14T18:46:59.376Z,72.64
2022-11-14T18:49:28.329Z,72.43
2022-11-14T18:51:56.583Z,73.03
2022-11-14T18:54:24.764Z,73.31
2022-11-14T18:56:52.867Z,73.20
2022-11-14T18:59:22.414Z,72.85
2022-11-14T19:01:50.674Z,72.80
2022-11-14T19:04:19.659Z,73.38
2022-11-14T19:06:48.067Z,73.55
2022-11-14T19:09:22.130Z,74.06
2022-11-14T19:12:08.223Z,74.06
2022-11-14T19:14:37.918Z,73.54
2022-11-14T19:17:07.140Z,73.39
2022-11-14T19:19:35.235Z,73.47
2022-11-14T19:22:04.013Z,73.69
2022-11-14T19:24:32.324Z,71.47
2022-11-14T19:27:03.229Z,70.71
2022-11-14T19:29:31.319Z,70.89
2022-11-14T19:32:00.800Z,71.51
2022-11-14T19:34:28.938Z,70.99
2022-11-14T19:37:01.144Z,71.39
2022-11-14T19:39:30.034Z,72.00
2022-11-14T19:41:58.326Z,72.21
2022-11-14T19:44:26.480Z,72.74
2022-11-14T19:46:54.597Z,72.67
2022-11-14T19:49:24.103Z,72.48
2022-11-14T19:51:52.228Z,73.05
2022-11-14T19:54:20.443Z,72.34
2022-11-14T19:56:48.539Z,73.29
2022-11-14T19:59:20.202Z,73.22
2022-11-14T20:01:55.219Z,74.11
2022-11-14T20:04:25.039Z,74.33
2022-11-14T20:06:53.390Z,74.64
2022-11-14T20:09:21.633Z,75.10
2022-11-14T20:11:49.870Z,75.36
2022-11-14T20:14:19.342Z,76.00
2022-11-14T20:16:47.514Z,76.29
2022-11-14T20:19:16.091Z,76.61
2022-11-14T20:21:45.676Z,76.83
2022-11-14T20:24:17.619Z,77.06
2022-11-14T20:26:46.295Z,77.55
2022-11-14T20:29:14.566Z,77.68
2022-11-14T20:31:42.814Z,77.69
2022-11-14T20:34:12.523Z,77.62
2022-11-14T20:37:09.433Z,78.03
2022-11-14T20:39:30.850Z,78.19
2022-11-14T20:41:59.051Z,78.42
2022-11-14T20:44:27.248Z,78.68
2022-11-14T20:46:56.909Z,79.17
2022-11-14T20:49:25.189Z,79.26
2022-11-14T20:51:53.405Z,79.54
2022-11-14T20:54:21.640Z,79.38
2022-11-14T20:56:51.259Z,79.64
2022-11-14T20:59:19.597Z,79.82
2022-11-14T21:01:48.089Z,80.17
2022-11-14T21:04:16.457Z,79.58
2022-11-14T21:06:44.680Z,79.91
2022-11-14T21:09:12.845Z,80.04
2022-11-14T21:11:40.939Z,80.28
2022-11-14T21:14:12.342Z,80.47
2022-11-14T21:16:41.492Z,80.92
2022-11-14T21:19:09.617Z,80.97
2022-11-14T21:21:39.198Z,81.16
2022-11-14T21:24:08.525Z,80.98
2022-11-14T21:26:40.347Z,81.26
2022-11-14T21:29:13.263Z,80.40
2022-11-14T21:31:44.504Z,80.42
2022-11-14T21:34:16.689Z,80.56
2022-11-14T21:36:46.935Z,80.64
2022-11-14T21:39:17.441Z,80.90
2022-11-14T21:41:48.444Z,81.38
2022-11-14T21:44:18.881Z,81.75
2022-11-14T21:46:49.642Z,82.02
2022-11-14T21:49:17.981Z,82.01
2022-11-14T21:51:47.072Z,82.23
2022-11-14T21:54:15.321Z,82.32
2022-11-14T21:56:43.498Z,82.43
2022-11-14T21:59:18.636Z,82.51
2022-11-14T22:02:19.390Z,82.33
2022-11-14T22:04:47.481Z,82.51
2022-11-14T22:07:17.247Z,82.65
2022-11-14T22:09:45.698Z,82.67
2022-11-14T22:12:13.889Z,82.92
2022-11-14T22:14:41.994Z,82.83
2022-11-14T22:17:11.425Z,82.88
2022-11-14T22:19:39.585Z,82.86
2022-11-14T22:22:07.740Z,82.72
2022-11-14T22:24:35.824Z,82.36
2022-11-14T22:27:04.006Z,82.35
2022-11-14T22:29:32.074Z,81.89
2022-11-14T22:32:00.179Z,82.21
2022-11-14T22:34:29.664Z,82.37
2022-11-14T22:36:57.809Z,82.44
2022-11-14T22:39:25.880Z,82.66
2022-11-14T22:41:54.012Z,82.76
2022-11-14T22:44:22.070Z,82.73
2022-11-14T22:46:50.161Z,82.67
2022-11-14T22:49:21.027Z,82.76
2022-11-14T22:51:50.887Z,82.55
2022-11-14T22:54:20.652Z,82.75
2022-11-14T22:56:48.801Z,82.53
2022-11-14T22:59:16.921Z,82.12
2022-11-14T23:01:45.181Z,82.32
2022-11-14T23:04:13.511Z,82.52
2022-11-14T23:06:41.679Z,82.69
2022-11-14T23:09:11.403Z,82.75
2022-11-14T23:11:39.532Z,82.94
2022-11-14T23:14:07.633Z,82.79
2022-11-14T23:16:36.188Z,83.09
2022-11-14T23:19:05.892Z,83.44
2022-11-14T23:21:36.992Z,83.31
2022-11-14T23:24:09.375Z,83.55
2022-11-14T23:26:38.834Z,83.48
2022-11-14T23:29:07.010Z,83.70
2022-11-14T23:31:35.114Z,83.93
2022-11-14T23:34:03.202Z,83.92
2022-11-14T23:36:31.342Z,84.07
2022-11-14T23:38:59.488Z,83.25
2022-11-14T23:41:27.626Z,83.44
2022-11-14T23:43:57.113Z,83.91
2022-11-14T23:46:25.321Z,84.00
2022-11-14T23:48:54.279Z,83.97
2022-11-14T23:51:22.440Z,84.14
2022-11-14T23:53:51.867Z,84.23
2022-11-14T23:56:19.972Z,83.50
2022-11-14T23:58:48.066Z,83.08
